sensor_id;sensor_type;location;lat;lon;timestamp;temperature;humidity
38480;DHT22;62333;51.980;5.934;2023-05-16T00:01:09;13.90;94.00
38480;DHT22;62333;51.980;5.934;2023-05-16T00:03:34;13.90;93.90
38480;DHT22;62333;51.980;5.934;2023-05-16T00:06:02;13.90;93.80
38480;DHT22;62333;51.980;5.934;2023-05-16T00:08:28;13.90;93.70
38480;DHT22;62333;51.980;5.934;2023-05-16T00:10:53;13.80;94.00
38480;DHT22;62333;51.980;5.934;2023-05-16T00:13:19;13.80;92.80
38480;DHT22;62333;51.980;5.934;2023-05-16T00:15:52;13.80;93.00
38480;DHT22;62333;51.980;5.934;2023-05-16T00:18:20;13.80;93.60
38480;DHT22;62333;51.980;5.934;2023-05-16T00:20:47;13.80;91.70
38480;DHT22;62333;51.980;5.934;2023-05-16T00:23:13;13.80;92.10
38480;DHT22;62333;51.980;5.934;2023-05-16T00:25:39;13.80;94.10
38480;DHT22;62333;51.980;5.934;2023-05-16T00:28:06;13.70;91.50
38480;DHT22;62333;51.980;5.934;2023-05-16T00:30:32;13.70;91.50
38480;DHT22;62333;51.980;5.934;2023-05-16T00:32:58;13.70;91.50
38480;DHT22;62333;51.980;5.934;2023-05-16T00:35:23;13.60;91.60
38480;DHT22;62333;51.980;5.934;2023-05-16T00:37:49;13.60;91.60
38480;DHT22;62333;51.980;5.934;2023-05-16T00:40:15;13.60;91.70
38480;DHT22;62333;51.980;5.934;2023-05-16T00:42:41;13.60;91.70
38480;DHT22;62333;51.980;5.934;2023-05-16T00:45:08;13.60;91.70
38480;DHT22;62333;51.980;5.934;2023-05-16T00:47:34;13.50;91.90
38480;DHT22;62333;51.980;5.934;2023-05-16T00:50:00;13.50;91.70
38480;DHT22;62333;51.980;5.934;2023-05-16T00:52:27;13.50;91.70
38480;DHT22;62333;51.980;5.934;2023-05-16T00:54:53;13.50;91.60
38480;DHT22;62333;51.980;5.934;2023-05-16T00:57:19;13.40;91.70
38480;DHT22;62333;51.980;5.934;2023-05-16T00:59:46;13.40;91.70
38480;DHT22;62333;51.980;5.934;2023-05-16T01:02:12;13.40;91.70
38480;DHT22;62333;51.980;5.934;2023-05-16T01:04:38;13.20;74.80
38480;DHT22;62333;51.980;5.934;2023-05-16T01:07:04;13.10;75.40
38480;DHT22;62333;51.980;5.934;2023-05-16T01:09:30;13.10;74.80
38480;DHT22;62333;51.980;5.934;2023-05-16T01:12:18;13.00;74.80
38480;DHT22;62333;51.980;5.934;2023-05-16T01:15:00;13.00;74.80
38480;DHT22;62333;51.980;5.934;2023-05-16T01:17:54;13.00;74.70
38480;DHT22;62333;51.980;5.934;2023-05-16T01:20:32;13.00;74.60
38480;DHT22;62333;51.980;5.934;2023-05-16T01:28:40;12.80;74.60
38480;DHT22;62333;51.980;5.934;2023-05-16T01:31:05;12.80;74.60
38480;DHT22;62333;51.980;5.934;2023-05-16T01:33:31;12.80;74.60
38480;DHT22;62333;51.980;5.934;2023-05-16T01:44:06;12.70;74.70
38480;DHT22;62333;51.980;5.934;2023-05-16T01:46:38;12.70;74.70
38480;DHT22;62333;51.980;5.934;2023-05-16T01:49:19;12.60;74.60
38480;DHT22;62333;51.980;5.934;2023-05-16T01:51:53;12.60;74.70
38480;DHT22;62333;51.980;5.934;2023-05-16T01:54:23;12.50;74.70
38480;DHT22;62333;51.980;5.934;2023-05-16T01:56:55;12.50;74.80
38480;DHT22;62333;51.980;5.934;2023-05-16T01:59:23;12.50;74.80
38480;DHT22;62333;51.980;5.934;2023-05-16T02:01:52;12.40;74.70
38480;DHT22;62333;51.980;5.934;2023-05-16T02:04:18;12.40;74.70
38480;DHT22;62333;51.980;5.934;2023-05-16T02:06:43;12.40;74.70
38480;DHT22;62333;51.980;5.934;2023-05-16T02:09:09;12.30;74.70
38480;DHT22;62333;51.980;5.934;2023-05-16T02:11:35;12.30;74.70
38480;DHT22;62333;51.980;5.934;2023-05-16T02:14:01;12.30;74.80
38480;DHT22;62333;51.980;5.934;2023-05-16T02:16:28;12.30;74.80
38480;DHT22;62333;51.980;5.934;2023-05-16T02:18:54;12.20;74.80
38480;DHT22;62333;51.980;5.934;2023-05-16T02:21:19;12.20;74.80
38480;DHT22;62333;51.980;5.934;2023-05-16T02:23:45;12.10;74.80
38480;DHT22;62333;51.980;5.934;2023-05-16T02:26:11;12.10;74.80
38480;DHT22;62333;51.980;5.934;2023-05-16T02:28:36;12.10;74.90
38480;DHT22;62333;51.980;5.934;2023-05-16T02:31:02;12.00;74.80
38480;DHT22;62333;51.980;5.934;2023-05-16T02:33:28;12.00;74.90
38480;DHT22;62333;51.980;5.934;2023-05-16T02:35:54;12.00;75.00
38480;DHT22;62333;51.980;5.934;2023-05-16T02:38:20;12.00;75.00
38480;DHT22;62333;51.980;5.934;2023-05-16T02:40:46;11.90;75.00
38480;DHT22;62333;51.980;5.934;2023-05-16T02:43:13;11.90;75.10
38480;DHT22;62333;51.980;5.934;2023-05-16T02:45:38;11.90;75.10
38480;DHT22;62333;51.980;5.934;2023-05-16T02:48:04;11.90;75.20
38480;DHT22;62333;51.980;5.934;2023-05-16T02:50:30;11.80;75.30
38480;DHT22;62333;51.980;5.934;2023-05-16T02:52:56;11.80;75.30
38480;DHT22;62333;51.980;5.934;2023-05-16T02:55:24;11.70;75.30
38480;DHT22;62333;51.980;5.934;2023-05-16T02:57:50;11.70;75.40
38480;DHT22;62333;51.980;5.934;2023-05-16T03:00:16;11.70;75.40
38480;DHT22;62333;51.980;5.934;2023-05-16T03:02:43;11.70;75.50
38480;DHT22;62333;51.980;5.934;2023-05-16T03:05:09;11.60;75.50
38480;DHT22;62333;51.980;5.934;2023-05-16T03:07:36;11.60;75.70
38480;DHT22;62333;51.980;5.934;2023-05-16T03:10:03;11.60;75.70
38480;DHT22;62333;51.980;5.934;2023-05-16T03:12:28;11.60;75.80
38480;DHT22;62333;51.980;5.934;2023-05-16T03:14:54;11.50;75.80
38480;DHT22;62333;51.980;5.934;2023-05-16T03:17:20;11.50;75.80
38480;DHT22;62333;51.980;5.934;2023-05-16T03:19:46;11.50;75.80
38480;DHT22;62333;51.980;5.934;2023-05-16T03:22:11;11.50;75.90
38480;DHT22;62333;51.980;5.934;2023-05-16T03:24:37;11.40;76.00
38480;DHT22;62333;51.980;5.934;2023-05-16T03:27:03;11.40;76.10
38480;DHT22;62333;51.980;5.934;2023-05-16T03:29:30;11.40;76.10
38480;DHT22;62333;51.980;5.934;2023-05-16T03:31:55;11.40;76.10
38480;DHT22;62333;51.980;5.934;2023-05-16T03:34:21;11.40;76.20
38480;DHT22;62333;51.980;5.934;2023-05-16T03:36:48;11.40;76.20
38480;DHT22;62333;51.980;5.934;2023-05-16T03:39:15;11.40;76.20
38480;DHT22;62333;51.980;5.934;2023-05-16T03:41:40;11.40;76.30
38480;DHT22;62333;51.980;5.934;2023-05-16T03:44:06;11.30;76.40
38480;DHT22;62333;51.980;5.934;2023-05-16T03:46:32;11.30;76.40
38480;DHT22;62333;51.980;5.934;2023-05-16T03:48:58;11.30;76.50
38480;DHT22;62333;51.980;5.934;2023-05-16T03:51:23;11.30;76.50
38480;DHT22;62333;51.980;5.934;2023-05-16T03:53:49;11.30;76.50
38480;DHT22;62333;51.980;5.934;2023-05-16T03:56:15;11.30;76.50
38480;DHT22;62333;51.980;5.934;2023-05-16T03:58:40;11.30;76.60
38480;DHT22;62333;51.980;5.934;2023-05-16T04:01:06;11.30;76.60
38480;DHT22;62333;51.980;5.934;2023-05-16T04:03:32;11.30;76.70
38480;DHT22;62333;51.980;5.934;2023-05-16T04:05:58;11.40;76.80
38480;DHT22;62333;51.980;5.934;2023-05-16T04:08:24;11.40;76.90
38480;DHT22;62333;51.980;5.934;2023-05-16T04:10:50;11.40;76.90
38480;DHT22;62333;51.980;5.934;2023-05-16T04:13:16;11.40;76.90
38480;DHT22;62333;51.980;5.934;2023-05-16T04:15:42;11.40;76.90
38480;DHT22;62333;51.980;5.934;2023-05-16T04:18:08;11.50;76.90
38480;DHT22;62333;51.980;5.934;2023-05-16T04:20:34;11.50;77.00
38480;DHT22;62333;51.980;5.934;2023-05-16T04:23:00;11.50;77.00
38480;DHT22;62333;51.980;5.934;2023-05-16T04:25:26;11.50;77.00
38480;DHT22;62333;51.980;5.934;2023-05-16T04:27:52;11.50;77.00
38480;DHT22;62333;51.980;5.934;2023-05-16T04:30:18;11.60;77.10
38480;DHT22;62333;51.980;5.934;2023-05-16T04:32:43;11.60;77.00
38480;DHT22;62333;51.980;5.934;2023-05-16T04:35:09;11.60;77.00
38480;DHT22;62333;51.980;5.934;2023-05-16T04:37:35;11.70;77.00
38480;DHT22;62333;51.980;5.934;2023-05-16T04:40:01;11.80;77.10
38480;DHT22;62333;51.980;5.934;2023-05-16T04:42:27;11.80;77.10
38480;DHT22;62333;51.980;5.934;2023-05-16T04:44:53;11.80;77.00
38480;DHT22;62333;51.980;5.934;2023-05-16T04:47:18;11.90;77.00
38480;DHT22;62333;51.980;5.934;2023-05-16T04:49:44;12.00;77.10
38480;DHT22;62333;51.980;5.934;2023-05-16T04:52:10;12.00;77.00
38480;DHT22;62333;51.980;5.934;2023-05-16T04:54:37;12.00;77.00
38480;DHT22;62333;51.980;5.934;2023-05-16T04:57:04;12.00;77.10
38480;DHT22;62333;51.980;5.934;2023-05-16T04:59:30;12.00;77.00
38480;DHT22;62333;51.980;5.934;2023-05-16T05:01:55;12.00;77.10
38480;DHT22;62333;51.980;5.934;2023-05-16T05:04:21;12.10;77.10
38480;DHT22;62333;51.980;5.934;2023-05-16T05:06:47;12.10;77.10
38480;DHT22;62333;51.980;5.934;2023-05-16T05:09:13;12.10;77.20
38480;DHT22;62333;51.980;5.934;2023-05-16T05:11:38;12.20;77.20
38480;DHT22;62333;51.980;5.934;2023-05-16T05:14:04;12.20;77.10
38480;DHT22;62333;51.980;5.934;2023-05-16T05:16:30;12.20;77.20
38480;DHT22;62333;51.980;5.934;2023-05-16T05:18:56;12.30;77.10
38480;DHT22;62333;51.980;5.934;2023-05-16T05:21:23;12.30;77.20
38480;DHT22;62333;51.980;5.934;2023-05-16T05:23:50;12.40;77.20
38480;DHT22;62333;51.980;5.934;2023-05-16T05:26:16;12.40;77.00
38480;DHT22;62333;51.980;5.934;2023-05-16T05:28:42;12.50;76.90
38480;DHT22;62333;51.980;5.934;2023-05-16T05:31:07;12.50;76.70
38480;DHT22;62333;51.980;5.934;2023-05-16T05:33:33;12.60;76.70
38480;DHT22;62333;51.980;5.934;2023-05-16T05:35:59;12.60;76.50
38480;DHT22;62333;51.980;5.934;2023-05-16T05:38:24;12.60;76.50
38480;DHT22;62333;51.980;5.934;2023-05-16T05:40:50;12.70;76.40
38480;DHT22;62333;51.980;5.934;2023-05-16T05:43:16;12.70;76.40
38480;DHT22;62333;51.980;5.934;2023-05-16T05:45:42;12.80;76.30
38480;DHT22;62333;51.980;5.934;2023-05-16T05:48:08;12.90;76.20
38480;DHT22;62333;51.980;5.934;2023-05-16T05:50:35;12.90;76.00
38480;DHT22;62333;51.980;5.934;2023-05-16T05:53:01;13.00;75.90
38480;DHT22;62333;51.980;5.934;2023-05-16T05:55:27;13.00;75.60
38480;DHT22;62333;51.980;5.934;2023-05-16T05:57:52;13.10;75.50
38480;DHT22;62333;51.980;5.934;2023-05-16T06:00:18;13.20;75.30
38480;DHT22;62333;51.980;5.934;2023-05-16T06:02:44;13.10;75.00
38480;DHT22;62333;51.980;5.934;2023-05-16T06:05:09;13.10;75.00
38480;DHT22;62333;51.980;5.934;2023-05-16T06:07:35;13.10;74.90
38480;DHT22;62333;51.980;5.934;2023-05-16T06:10:01;13.10;74.90
38480;DHT22;62333;51.980;5.934;2023-05-16T06:12:29;13.20;74.90
38480;DHT22;62333;51.980;5.934;2023-05-16T06:14:55;13.10;74.70
38480;DHT22;62333;51.980;5.934;2023-05-16T06:17:20;13.10;74.60
38480;DHT22;62333;51.980;5.934;2023-05-16T06:19:46;13.10;74.60
38480;DHT22;62333;51.980;5.934;2023-05-16T06:22:12;13.10;74.60
38480;DHT22;62333;51.980;5.934;2023-05-16T06:24:37;13.10;74.70
38480;DHT22;62333;51.980;5.934;2023-05-16T06:27:03;13.10;74.70
38480;DHT22;62333;51.980;5.934;2023-05-16T06:29:29;13.20;74.70
38480;DHT22;62333;51.980;5.934;2023-05-16T06:31:55;13.20;74.60
38480;DHT22;62333;51.980;5.934;2023-05-16T06:34:21;13.20;74.60
38480;DHT22;62333;51.980;5.934;2023-05-16T06:36:53;13.30;74.60
38480;DHT22;62333;51.980;5.934;2023-05-16T06:39:19;13.30;74.60
38480;DHT22;62333;51.980;5.934;2023-05-16T06:41:44;13.30;74.50
38480;DHT22;62333;51.980;5.934;2023-05-16T06:44:10;13.40;74.60
38480;DHT22;62333;51.980;5.934;2023-05-16T06:46:36;13.40;74.50
38480;DHT22;62333;51.980;5.934;2023-05-16T06:49:02;13.40;74.40
38480;DHT22;62333;51.980;5.934;2023-05-16T06:51:29;13.50;74.20
38480;DHT22;62333;51.980;5.934;2023-05-16T06:53:55;13.60;74.20
38480;DHT22;62333;51.980;5.934;2023-05-16T06:56:21;13.60;74.10
38480;DHT22;62333;51.980;5.934;2023-05-16T06:58:47;13.60;74.00
38480;DHT22;62333;51.980;5.934;2023-05-16T07:01:14;13.70;74.00
38480;DHT22;62333;51.980;5.934;2023-05-16T07:03:40;13.80;74.20
38480;DHT22;62333;51.980;5.934;2023-05-16T07:06:05;13.90;74.00
38480;DHT22;62333;51.980;5.934;2023-05-16T07:08:31;14.10;73.90
38480;DHT22;62333;51.980;5.934;2023-05-16T07:10:57;14.20;73.80
38480;DHT22;62333;51.980;5.934;2023-05-16T07:13:23;14.40;73.70
38480;DHT22;62333;51.980;5.934;2023-05-16T07:15:49;14.70;73.50
38480;DHT22;62333;51.980;5.934;2023-05-16T07:18:14;15.00;90.80
38480;DHT22;62333;51.980;5.934;2023-05-16T07:20:40;15.20;90.70
38480;DHT22;62333;51.980;5.934;2023-05-16T07:23:06;15.40;90.80
38480;DHT22;62333;51.980;5.934;2023-05-16T07:25:31;15.60;90.90
38480;DHT22;62333;51.980;5.934;2023-05-16T07:27:57;15.90;91.10
38480;DHT22;62333;51.980;5.934;2023-05-16T07:30:23;16.10;93.00
38480;DHT22;62333;51.980;5.934;2023-05-16T07:32:48;16.30;93.50
38480;DHT22;62333;51.980;5.934;2023-05-16T07:35:14;16.50;92.60
38480;DHT22;62333;51.980;5.934;2023-05-16T07:37:40;16.60;91.20
38480;DHT22;62333;51.980;5.934;2023-05-16T07:40:08;16.70;90.00
38480;DHT22;62333;51.980;5.934;2023-05-16T07:42:34;16.80;89.00
38480;DHT22;62333;51.980;5.934;2023-05-16T07:45:00;16.80;87.70
38480;DHT22;62333;51.980;5.934;2023-05-16T07:47:26;17.00;87.10
38480;DHT22;62333;51.980;5.934;2023-05-16T07:49:52;17.10;86.60
38480;DHT22;62333;51.980;5.934;2023-05-16T07:52:17;17.10;85.00
38480;DHT22;62333;51.980;5.934;2023-05-16T07:54:45;17.20;84.50
38480;DHT22;62333;51.980;5.934;2023-05-16T07:57:12;17.20;83.70
38480;DHT22;62333;51.980;5.934;2023-05-16T07:59:38;17.20;83.10
38480;DHT22;62333;51.980;5.934;2023-05-16T08:02:03;17.10;82.40
38480;DHT22;62333;51.980;5.934;2023-05-16T08:04:29;17.10;82.20
38480;DHT22;62333;51.980;5.934;2023-05-16T08:06:55;17.00;82.00
38480;DHT22;62333;51.980;5.934;2023-05-16T08:09:21;17.00;82.10
38480;DHT22;62333;51.980;5.934;2023-05-16T08:11:46;16.90;81.90
38480;DHT22;62333;51.980;5.934;2023-05-16T08:14:12;16.80;81.10
38480;DHT22;62333;51.980;5.934;2023-05-16T08:16:37;16.70;81.00
38480;DHT22;62333;51.980;5.934;2023-05-16T08:19:03;16.70;80.80
38480;DHT22;62333;51.980;5.934;2023-05-16T08:21:29;16.80;81.00
38480;DHT22;62333;51.980;5.934;2023-05-16T08:23:56;16.90;80.90
38480;DHT22;62333;51.980;5.934;2023-05-16T08:26:22;17.00;80.80
38480;DHT22;62333;51.980;5.934;2023-05-16T08:28:47;17.20;80.80
38480;DHT22;62333;51.980;5.934;2023-05-16T08:31:13;17.30;80.60
38480;DHT22;62333;51.980;5.934;2023-05-16T08:33:39;17.40;80.50
38480;DHT22;62333;51.980;5.934;2023-05-16T08:36:05;17.40;80.20
38480;DHT22;62333;51.980;5.934;2023-05-16T08:38:31;17.30;80.10
38480;DHT22;62333;51.980;5.934;2023-05-16T08:40:56;17.30;79.90
38480;DHT22;62333;51.980;5.934;2023-05-16T08:43:22;17.30;79.80
38480;DHT22;62333;51.980;5.934;2023-05-16T08:45:48;17.20;79.70
38480;DHT22;62333;51.980;5.934;2023-05-16T08:48:14;17.20;79.70
38480;DHT22;62333;51.980;5.934;2023-05-16T08:50:41;17.30;79.80
38480;DHT22;62333;51.980;5.934;2023-05-16T08:53:11;17.40;80.00
38480;DHT22;62333;51.980;5.934;2023-05-16T08:55:40;17.50;80.10
38480;DHT22;62333;51.980;5.934;2023-05-16T08:58:07;17.70;80.30
38480;DHT22;62333;51.980;5.934;2023-05-16T09:00:34;17.80;79.80
38480;DHT22;62333;51.980;5.934;2023-05-16T09:03:00;17.90;79.20
38480;DHT22;62333;51.980;5.934;2023-05-16T09:05:28;17.90;79.20
38480;DHT22;62333;51.980;5.934;2023-05-16T09:07:54;17.90;79.20
38480;DHT22;62333;51.980;5.934;2023-05-16T09:10:20;18.00;78.70
38480;DHT22;62333;51.980;5.934;2023-05-16T09:12:46;18.20;78.80
38480;DHT22;62333;51.980;5.934;2023-05-16T09:15:11;18.30;78.30
38480;DHT22;62333;51.980;5.934;2023-05-16T09:17:46;18.40;77.60
38480;DHT22;62333;51.980;5.934;2023-05-16T09:20:14;18.50;77.40
38480;DHT22;62333;51.980;5.934;2023-05-16T09:22:51;18.70;77.50
38480;DHT22;62333;51.980;5.934;2023-05-16T09:25:17;18.80;79.20
38480;DHT22;62333;51.980;5.934;2023-05-16T09:27:45;18.80;79.40
38480;DHT22;62333;51.980;5.934;2023-05-16T09:30:14;18.80;77.10
38480;DHT22;62333;51.980;5.934;2023-05-16T09:32:43;18.80;78.40
38480;DHT22;62333;51.980;5.934;2023-05-16T09:35:17;18.60;76.40
38480;DHT22;62333;51.980;5.934;2023-05-16T09:37:49;18.50;75.70
38480;DHT22;62333;51.980;5.934;2023-05-16T09:40:21;18.40;76.10
38480;DHT22;62333;51.980;5.934;2023-05-16T09:42:47;18.40;76.30
38480;DHT22;62333;51.980;5.934;2023-05-16T09:45:16;18.50;77.70
38480;DHT22;62333;51.980;5.934;2023-05-16T09:47:43;18.60;78.80
38480;DHT22;62333;51.980;5.934;2023-05-16T09:50:13;18.70;79.00
38480;DHT22;62333;51.980;5.934;2023-05-16T09:52:41;18.80;77.20
38480;DHT22;62333;51.980;5.934;2023-05-16T09:55:08;19.00;77.90
38480;DHT22;62333;51.980;5.934;2023-05-16T09:57:36;19.20;77.90
38480;DHT22;62333;51.980;5.934;2023-05-16T10:00:13;19.30;76.30
38480;DHT22;62333;51.980;5.934;2023-05-16T10:02:40;19.50;75.70
38480;DHT22;62333;51.980;5.934;2023-05-16T10:05:06;19.60;75.00
38480;DHT22;62333;51.980;5.934;2023-05-16T10:07:32;19.60;74.40
38480;DHT22;62333;51.980;5.934;2023-05-16T10:10:05;19.60;74.60
38480;DHT22;62333;51.980;5.934;2023-05-16T10:12:32;19.60;74.70
38480;DHT22;62333;51.980;5.934;2023-05-16T10:15:00;19.50;74.30
38480;DHT22;62333;51.980;5.934;2023-05-16T10:17:30;19.40;74.30
38480;DHT22;62333;51.980;5.934;2023-05-16T10:19:57;19.40;75.10
38480;DHT22;62333;51.980;5.934;2023-05-16T10:22:25;19.30;75.20
38480;DHT22;62333;51.980;5.934;2023-05-16T10:25:38;19.40;75.30
38480;DHT22;62333;51.980;5.934;2023-05-16T10:28:06;19.40;74.00
38480;DHT22;62333;51.980;5.934;2023-05-16T10:30:33;19.30;75.10
38480;DHT22;62333;51.980;5.934;2023-05-16T10:33:02;19.40;75.40
38480;DHT22;62333;51.980;5.934;2023-05-16T10:35:30;19.50;75.10
38480;DHT22;62333;51.980;5.934;2023-05-16T10:37:57;19.60;74.80
38480;DHT22;62333;51.980;5.934;2023-05-16T10:40:23;19.60;74.20
38480;DHT22;62333;51.980;5.934;2023-05-16T10:43:00;19.70;73.20
38480;DHT22;62333;51.980;5.934;2023-05-16T10:45:27;19.80;73.30
38480;DHT22;62333;51.980;5.934;2023-05-16T10:47:57;20.00;72.80
38480;DHT22;62333;51.980;5.934;2023-05-16T10:50:43;20.20;72.40
38480;DHT22;62333;51.980;5.934;2023-05-16T10:53:32;20.50;71.00
38480;DHT22;62333;51.980;5.934;2023-05-16T11:12:09;20.60;66.30
38480;DHT22;62333;51.980;5.934;2023-05-16T11:14:40;20.60;66.20
38480;DHT22;62333;51.980;5.934;2023-05-16T11:17:14;20.70;66.40
38480;DHT22;62333;51.980;5.934;2023-05-16T11:19:49;20.90;64.80
38480;DHT22;62333;51.980;5.934;2023-05-16T11:29:57;22.40;43.80
38480;DHT22;62333;51.980;5.934;2023-05-16T11:32:23;22.80;43.30
38480;DHT22;62333;51.980;5.934;2023-05-16T11:34:52;23.00;42.60
38480;DHT22;62333;51.980;5.934;2023-05-16T11:37:19;23.20;42.20
38480;DHT22;62333;51.980;5.934;2023-05-16T11:39:46;23.30;41.90
38480;DHT22;62333;51.980;5.934;2023-05-16T11:42:11;23.30;41.70
38480;DHT22;62333;51.980;5.934;2023-05-16T11:44:38;23.30;41.50
38480;DHT22;62333;51.980;5.934;2023-05-16T11:47:05;23.20;41.50
38480;DHT22;62333;51.980;5.934;2023-05-16T11:49:32;23.10;42.50
38480;DHT22;62333;51.980;5.934;2023-05-16T11:51:59;23.00;41.90
38480;DHT22;62333;51.980;5.934;2023-05-16T11:54:24;22.90;41.70
38480;DHT22;62333;51.980;5.934;2023-05-16T11:56:50;22.80;41.20
38480;DHT22;62333;51.980;5.934;2023-05-16T11:59:17;22.80;40.80
38480;DHT22;62333;51.980;5.934;2023-05-16T12:01:43;23.00;40.60
38480;DHT22;62333;51.980;5.934;2023-05-16T12:04:13;23.30;40.50
38480;DHT22;62333;51.980;5.934;2023-05-16T12:06:40;23.40;39.90
38480;DHT22;62333;51.980;5.934;2023-05-16T12:09:11;23.40;39.90
38480;DHT22;62333;51.980;5.934;2023-05-16T12:11:42;23.30;40.00
38480;DHT22;62333;51.980;5.934;2023-05-16T12:14:10;23.20;40.10
38480;DHT22;62333;51.980;5.934;2023-05-16T12:16:37;23.20;40.40
38480;DHT22;62333;51.980;5.934;2023-05-16T12:19:04;23.20;40.00
38480;DHT22;62333;51.980;5.934;2023-05-16T12:21:31;23.00;39.60
38480;DHT22;62333;51.980;5.934;2023-05-16T12:23:57;22.70;39.70
38480;DHT22;62333;51.980;5.934;2023-05-16T12:26:30;22.50;40.10
38480;DHT22;62333;51.980;5.934;2023-05-16T12:28:58;22.30;40.20
38480;DHT22;62333;51.980;5.934;2023-05-16T12:31:28;22.20;40.40
38480;DHT22;62333;51.980;5.934;2023-05-16T12:33:55;22.10;40.40
38480;DHT22;62333;51.980;5.934;2023-05-16T12:36:21;22.30;40.50
38480;DHT22;62333;51.980;5.934;2023-05-16T12:38:48;22.40;40.40
38480;DHT22;62333;51.980;5.934;2023-05-16T12:41:21;22.40;40.50
38480;DHT22;62333;51.980;5.934;2023-05-16T12:43:47;22.30;40.50
38480;DHT22;62333;51.980;5.934;2023-05-16T12:46:13;22.20;40.70
38480;DHT22;62333;51.980;5.934;2023-05-16T12:48:39;22.10;40.90
38480;DHT22;62333;51.980;5.934;2023-05-16T12:51:14;22.10;50.80
38480;DHT22;62333;51.980;5.934;2023-05-16T12:53:42;21.90;48.30
38480;DHT22;62333;51.980;5.934;2023-05-16T12:56:08;21.50;40.90
38480;DHT22;62333;51.980;5.934;2023-05-16T12:58:34;21.40;55.10
38480;DHT22;62333;51.980;5.934;2023-05-16T13:01:00;21.20;57.50
38480;DHT22;62333;51.980;5.934;2023-05-16T13:03:26;21.10;59.30
38480;DHT22;62333;51.980;5.934;2023-05-16T13:05:51;20.90;60.50
38480;DHT22;62333;51.980;5.934;2023-05-16T13:08:17;20.70;61.70
38480;DHT22;62333;51.980;5.934;2023-05-16T13:10:43;20.50;62.80
38480;DHT22;62333;51.980;5.934;2023-05-16T13:13:08;20.40;63.60
38480;DHT22;62333;51.980;5.934;2023-05-16T13:15:34;20.30;63.50
38480;DHT22;62333;51.980;5.934;2023-05-16T13:18:00;20.30;63.70
38480;DHT22;62333;51.980;5.934;2023-05-16T13:20:25;20.20;64.40
38480;DHT22;62333;51.980;5.934;2023-05-16T13:22:51;20.40;64.40
38480;DHT22;62333;51.980;5.934;2023-05-16T13:25:17;20.50;64.40
38480;DHT22;62333;51.980;5.934;2023-05-16T13:27:42;20.70;64.00
38480;DHT22;62333;51.980;5.934;2023-05-16T13:30:08;20.90;63.70
38480;DHT22;62333;51.980;5.934;2023-05-16T13:32:34;20.90;63.40
38480;DHT22;62333;51.980;5.934;2023-05-16T13:35:00;21.00;63.50
38480;DHT22;62333;51.980;5.934;2023-05-16T13:37:26;21.00;63.30
38480;DHT22;62333;51.980;5.934;2023-05-16T13:39:51;21.00;63.20
38480;DHT22;62333;51.980;5.934;2023-05-16T13:42:19;21.00;62.60
38480;DHT22;62333;51.980;5.934;2023-05-16T13:44:45;20.90;62.60
38480;DHT22;62333;51.980;5.934;2023-05-16T13:47:11;20.70;62.60
38480;DHT22;62333;51.980;5.934;2023-05-16T13:49:36;20.70;62.90
38480;DHT22;62333;51.980;5.934;2023-05-16T13:52:03;20.50;62.90
38480;DHT22;62333;51.980;5.934;2023-05-16T13:54:29;20.50;63.10
38480;DHT22;62333;51.980;5.934;2023-05-16T13:56:55;20.30;63.60
38480;DHT22;62333;51.980;5.934;2023-05-16T13:59:20;20.20;64.10
38480;DHT22;62333;51.980;5.934;2023-05-16T14:01:46;20.00;64.30
38480;DHT22;62333;51.980;5.934;2023-05-16T14:04:11;19.90;63.80
38480;DHT22;62333;51.980;5.934;2023-05-16T14:06:37;19.80;63.90
38480;DHT22;62333;51.980;5.934;2023-05-16T14:09:03;19.70;64.20
38480;DHT22;62333;51.980;5.934;2023-05-16T14:11:29;19.60;64.20
38480;DHT22;62333;51.980;5.934;2023-05-16T14:13:55;19.40;64.50
38480;DHT22;62333;51.980;5.934;2023-05-16T14:16:21;19.30;64.60
38480;DHT22;62333;51.980;5.934;2023-05-16T14:18:47;19.30;64.90
38480;DHT22;62333;51.980;5.934;2023-05-16T14:21:13;19.20;65.20
38480;DHT22;62333;51.980;5.934;2023-05-16T14:23:38;19.10;65.50
38480;DHT22;62333;51.980;5.934;2023-05-16T14:26:05;19.00;65.70
38480;DHT22;62333;51.980;5.934;2023-05-16T14:28:30;18.90;65.90
38480;DHT22;62333;51.980;5.934;2023-05-16T14:30:59;18.90;66.20
38480;DHT22;62333;51.980;5.934;2023-05-16T14:33:25;18.80;66.40
38480;DHT22;62333;51.980;5.934;2023-05-16T14:35:51;18.70;66.70
38480;DHT22;62333;51.980;5.934;2023-05-16T14:38:17;18.70;67.00
38480;DHT22;62333;51.980;5.934;2023-05-16T14:40:43;18.60;67.20
38480;DHT22;62333;51.980;5.934;2023-05-16T14:43:09;18.60;67.30
38480;DHT22;62333;51.980;5.934;2023-05-16T14:45:37;18.60;67.70
38480;DHT22;62333;51.980;5.934;2023-05-16T14:48:04;18.60;68.00
38480;DHT22;62333;51.980;5.934;2023-05-16T14:50:30;18.70;67.90
38480;DHT22;62333;51.980;5.934;2023-05-16T14:52:55;18.70;67.90
38480;DHT22;62333;51.980;5.934;2023-05-16T14:55:21;18.60;67.80
38480;DHT22;62333;51.980;5.934;2023-05-16T14:57:47;18.60;67.90
38480;DHT22;62333;51.980;5.934;2023-05-16T15:00:14;18.60;68.10
38480;DHT22;62333;51.980;5.934;2023-05-16T15:02:41;18.60;68.20
38480;DHT22;62333;51.980;5.934;2023-05-16T15:05:07;18.60;68.20
38480;DHT22;62333;51.980;5.934;2023-05-16T15:07:33;18.60;68.10
38480;DHT22;62333;51.980;5.934;2023-05-16T15:09:59;18.70;68.10
38480;DHT22;62333;51.980;5.934;2023-05-16T15:12:25;18.70;67.90
38480;DHT22;62333;51.980;5.934;2023-05-16T15:14:50;18.70;67.60
38480;DHT22;62333;51.980;5.934;2023-05-16T15:17:16;18.60;67.80
38480;DHT22;62333;51.980;5.934;2023-05-16T15:19:42;18.60;67.90
38480;DHT22;62333;51.980;5.934;2023-05-16T15:22:07;18.50;68.00
38480;DHT22;62333;51.980;5.934;2023-05-16T15:24:35;18.50;68.10
38480;DHT22;62333;51.980;5.934;2023-05-16T15:27:01;18.50;68.20
38480;DHT22;62333;51.980;5.934;2023-05-16T15:29:29;18.50;68.80
38480;DHT22;62333;51.980;5.934;2023-05-16T15:31:55;18.40;68.80
38480;DHT22;62333;51.980;5.934;2023-05-16T15:34:21;18.40;68.80
38480;DHT22;62333;51.980;5.934;2023-05-16T15:36:46;18.40;68.90
38480;DHT22;62333;51.980;5.934;2023-05-16T15:39:12;18.40;69.10
38480;DHT22;62333;51.980;5.934;2023-05-16T15:41:37;18.40;69.20
38480;DHT22;62333;51.980;5.934;2023-05-16T15:44:03;18.40;69.30
38480;DHT22;62333;51.980;5.934;2023-05-16T15:46:29;18.30;69.30
38480;DHT22;62333;51.980;5.934;2023-05-16T15:48:57;18.30;69.60
38480;DHT22;62333;51.980;5.934;2023-05-16T15:51:23;18.30;69.60
38480;DHT22;62333;51.980;5.934;2023-05-16T15:53:48;18.30;69.70
38480;DHT22;62333;51.980;5.934;2023-05-16T15:56:14;18.30;69.70
38480;DHT22;62333;51.980;5.934;2023-05-16T15:58:40;18.20;69.70
38480;DHT22;62333;51.980;5.934;2023-05-16T16:01:06;18.30;69.80
38480;DHT22;62333;51.980;5.934;2023-05-16T16:03:31;18.30;69.80
38480;DHT22;62333;51.980;5.934;2023-05-16T16:05:57;18.20;69.70